createdAt,value
2022-10-28T00:01:13.864Z,101800.38
2022-10-28T00:03:55.248Z,101801.28
2022-10-28T00:06:25.604Z,101796.94
2022-10-28T00:08:53.494Z,101800.41
2022-10-28T00:11:23.836Z,101793.47
2022-10-28T00:13:54.186Z,101786.50
2022-10-28T00:16:27.079Z,101779.56
2022-10-28T00:18:55.143Z,101780.44
2022-10-28T00:21:25.867Z,101760.41
2022-10-28T00:23:53.423Z,101776.94
2022-10-28T00:26:24.270Z,101779.56
2022-10-28T00:29:02.610Z,101769.97
2022-10-28T00:31:31.838Z,101772.59
2022-10-28T00:34:00.986Z,101774.31
2022-10-28T00:36:31.737Z,101781.28
2022-10-28T00:39:00.176Z,101769.06
2022-10-28T00:41:31.420Z,101768.19
2022-10-28T00:44:05.023Z,101766.47
2022-10-28T00:46:42.042Z,101765.59
2022-10-28T00:49:17.815Z,101769.97
2022-10-28T00:51:49.566Z,101751.69
2022-10-28T00:54:18.673Z,101756.91
2022-10-28T00:56:49.664Z,101752.56
2022-10-28T00:59:23.821Z,101755.19
2022-10-28T01:01:51.497Z,101755.19
2022-10-28T01:04:19.690Z,101760.47
2022-10-28T01:06:48.957Z,101765.69
2022-10-28T01:09:16.455Z,101755.25
2022-10-28T01:12:06.179Z,101750.03
2022-10-28T01:15:01.265Z,101751.75
2022-10-28T01:17:33.135Z,101750.03
2022-10-28T01:20:12.663Z,101757.00
2022-10-28T01:22:52.301Z,101747.41
2022-10-28T01:25:32.162Z,101746.56
2022-10-28T01:28:17.939Z,101746.59
2022-10-28T01:31:15.658Z,101751.81
2022-10-28T01:34:00.058Z,101752.72
2022-10-28T01:36:33.384Z,101737.91
2022-10-28T01:39:20.813Z,101737.03
2022-10-28T01:42:06.176Z,101741.38
2022-10-28T01:45:01.389Z,101737.91
2022-10-28T01:47:50.351Z,101743.13
2022-10-28T01:50:29.333Z,101736.16
2022-10-28T01:53:01.173Z,101733.56
2022-10-28T01:55:33.474Z,101727.50
2022-10-28T01:58:01.632Z,101732.72
2022-10-28T02:00:30.982Z,101722.25
2022-10-28T02:02:58.674Z,101710.97
2022-10-28T02:05:46.178Z,101718.81
2022-10-28T02:08:23.302Z,101718.81
2022-10-28T02:11:03.009Z,101710.97
2022-10-28T02:13:42.801Z,101715.38
2022-10-28T02:16:32.878Z,101714.50
2022-10-28T02:19:09.877Z,101710.13
2022-10-28T02:21:50.615Z,101724.09
2022-10-28T02:24:34.210Z,101699.72
2022-10-28T02:27:11.386Z,101717.13
2022-10-28T02:29:46.481Z,101708.41
2022-10-28T02:32:20.748Z,101704.91
2022-10-28T02:34:53.649Z,101708.41
2022-10-28T02:37:30.605Z,101706.69
2022-10-28T02:40:02.669Z,101713.66
2022-10-28T02:42:35.949Z,101703.25
2022-10-28T02:45:14.575Z,101711.91
2022-10-28T02:47:47.855Z,101711.91
2022-10-28T02:50:18.879Z,101705.81
2022-10-28T02:52:51.173Z,101705.84
2022-10-28T02:55:21.774Z,101704.13
2022-10-28T02:57:49.941Z,101700.59
2022-10-28T03:00:24.570Z,101704.97
2022-10-28T03:02:52.440Z,101699.72
2022-10-28T03:05:20.729Z,101688.41
2022-10-28T03:07:48.197Z,101701.47
2022-10-28T03:10:15.815Z,101704.97
2022-10-28T03:12:43.256Z,101707.53
2022-10-28T03:15:11.153Z,101710.16
2022-10-28T03:17:38.603Z,101713.66
2022-10-28T03:20:06.557Z,101718.81
2022-10-28T03:22:34.125Z,101708.38
2022-10-28T03:25:01.562Z,101702.28
2022-10-28T03:27:29.069Z,101691.84
2022-10-28T03:29:56.517Z,101700.53
2022-10-28T03:32:23.971Z,101690.94
2022-10-28T03:34:51.450Z,101690.94
2022-10-28T03:37:18.922Z,101679.63
2022-10-28T03:39:46.385Z,101684.00
2022-10-28T03:42:13.964Z,101670.06
2022-10-28T03:44:41.401Z,101660.50
2022-10-28T03:47:09.097Z,101663.09
2022-10-28T03:49:36.557Z,101664.00
2022-10-28T03:52:04.065Z,101653.56
2022-10-28T03:54:31.538Z,101664.00
2022-10-28T03:56:58.991Z,101674.47
2022-10-28T03:59:26.433Z,101677.09
2022-10-28T04:01:54.022Z,101668.38
2022-10-28T04:04:21.587Z,101657.94
2022-10-28T04:06:49.004Z,101664.06
2022-10-28T04:09:16.438Z,101664.94
2022-10-28T04:11:43.886Z,101665.00
2022-10-28T04:14:11.334Z,101683.22
2022-10-28T04:16:38.764Z,101683.28
2022-10-28T04:19:06.214Z,101674.56
2022-10-28T04:21:33.711Z,101677.19
2022-10-28T04:24:01.141Z,101673.72
2022-10-28T04:26:30.628Z,101662.41
2022-10-28T04:28:58.324Z,101671.97
2022-10-28T04:31:25.773Z,101674.59
2022-10-28T04:33:53.239Z,101668.50
2022-10-28T04:36:20.706Z,101665.03
2022-10-28T04:38:48.189Z,101666.75
2022-10-28T04:41:16.018Z,101671.13
2022-10-28T04:43:43.468Z,101665.03
2022-10-28T04:46:11.218Z,101658.06
2022-10-28T04:48:38.648Z,101662.41
2022-10-28T04:51:06.339Z,101665.03
2022-10-28T04:53:33.794Z,101670.25
2022-10-28T04:56:01.336Z,101665.91
2022-10-28T04:58:28.811Z,101657.19
2022-10-28T05:00:56.341Z,101665.88
2022-10-28T05:03:23.825Z,101651.94
2022-10-28T05:05:51.494Z,101655.38
2022-10-28T05:08:18.966Z,101656.22
2022-10-28T05:10:49.966Z,101657.94
2022-10-28T05:13:18.315Z,101648.38
2022-10-28T05:15:46.284Z,101654.44
2022-10-28T05:18:13.779Z,101652.72
2022-10-28T05:20:41.530Z,101656.16
2022-10-28T05:23:09.007Z,101663.09
2022-10-28T05:25:36.737Z,101654.38
2022-10-28T05:28:04.251Z,101643.91
2022-10-28T05:30:31.708Z,101645.66
2022-10-28T05:33:03.014Z,101649.97
2022-10-28T05:35:31.307Z,101656.97
2022-10-28T05:37:59.138Z,101638.69
2022-10-28T05:40:26.858Z,101633.47
2022-10-28T05:42:54.629Z,101642.19
2022-10-28T05:45:22.347Z,101630.84
2022-10-28T05:47:50.081Z,101645.66
2022-10-28T05:50:20.461Z,101642.19
2022-10-28T05:52:49.812Z,101639.53
2022-10-28T05:55:19.534Z,101646.53
2022-10-28T05:57:48.432Z,101632.59
2022-10-28T06:00:17.261Z,101633.47
2022-10-28T06:02:44.743Z,101641.25
2022-10-28T06:05:12.728Z,101633.41
2022-10-28T06:07:41.830Z,101628.16
2022-10-28T06:10:11.154Z,101629.94
2022-10-28T06:12:37.459Z,101629.94
2022-10-28T06:15:05.359Z,101645.63
2022-10-28T06:17:32.849Z,101630.78
2022-10-28T06:20:00.313Z,101635.19
2022-10-28T06:22:27.838Z,101632.59
2022-10-28T06:24:55.305Z,101645.63
2022-10-28T06:27:22.736Z,101648.25
2022-10-28T06:29:50.199Z,101642.13
2022-10-28T06:32:18.815Z,101646.50
2022-10-28T06:34:46.946Z,101628.25
2022-10-28T06:37:14.510Z,101636.91
2022-10-28T06:39:42.950Z,101650.84
2022-10-28T06:42:10.400Z,101642.09
2022-10-28T06:44:37.903Z,101643.84
2022-10-28T06:47:06.911Z,101643.81
2022-10-28T06:49:34.401Z,101638.56
2022-10-28T06:52:02.008Z,101639.44
2022-10-28T06:54:29.459Z,101638.53
2022-10-28T06:56:56.971Z,101635.94
2022-10-28T06:59:24.517Z,101635.03
2022-10-28T07:01:52.149Z,101648.13
2022-10-28T07:04:19.722Z,101648.13
2022-10-28T07:06:49.858Z,101638.53
2022-10-28T07:09:19.395Z,101641.94
2022-10-28T07:11:54.861Z,101638.44
2022-10-28T07:14:23.065Z,101642.78
2022-10-28T07:16:50.531Z,101652.28
2022-10-28T07:19:20.346Z,101653.97
2022-10-28T07:21:50.008Z,101641.75
2022-10-28T07:24:17.620Z,101650.41
2022-10-28T07:26:45.197Z,101652.97
2022-10-28T07:29:12.698Z,101655.53
2022-10-28T07:31:40.212Z,101655.47
2022-10-28T07:34:07.853Z,101650.22
2022-10-28T07:36:35.336Z,101653.66
2022-10-28T07:39:02.988Z,101655.34
2022-10-28T07:41:30.488Z,101662.31
2022-10-28T07:43:58.011Z,101663.13
2022-10-28T07:46:25.503Z,101672.59
2022-10-28T07:48:52.951Z,101673.38
2022-10-28T07:51:20.430Z,101668.00
2022-10-28T07:53:47.908Z,101667.97
2022-10-28T07:56:15.399Z,101663.50
2022-10-28T07:58:44.687Z,101662.50
2022-10-28T08:01:14.274Z,101665.03
2022-10-28T08:03:42.303Z,101658.72
2022-10-28T08:06:12.549Z,101665.59
2022-10-28T08:08:40.885Z,101650.56
2022-10-28T08:11:20.146Z,101645.22
2022-10-28T08:13:48.198Z,101652.91
2022-10-28T08:16:15.695Z,101648.47
2022-10-28T08:18:43.489Z,101644.78
2022-10-28T08:21:12.488Z,101642.97
2022-10-28T08:23:41.386Z,101656.72
2022-10-28T08:26:09.362Z,101653.03
2022-10-28T08:28:36.833Z,101660.81
2022-10-28T08:31:09.427Z,101645.81
2022-10-28T08:33:38.942Z,101643.91
2022-10-28T08:36:07.899Z,101647.28
2022-10-28T08:38:35.361Z,101640.34
2022-10-28T08:41:25.700Z,101659.34
2022-10-28T08:44:11.601Z,101651.41
2022-10-28T08:47:01.567Z,101652.94
2022-10-28T08:49:33.163Z,101639.72
2022-10-28T08:52:10.770Z,101652.56
2022-10-28T08:54:47.309Z,101631.44
2022-10-28T08:57:21.536Z,101640.75
2022-10-28T08:59:52.949Z,101639.81
2022-10-28T09:02:34.160Z,101636.94
2022-10-28T09:05:28.472Z,101638.56
2022-10-28T09:07:57.496Z,101624.38
2022-10-28T09:10:51.153Z,101639.22
2022-10-28T09:13:48.650Z,101632.06
2022-10-28T09:16:41.106Z,101628.25
2022-10-28T09:19:16.637Z,101630.72
2022-10-28T09:21:51.987Z,101628.91
2022-10-28T09:24:32.493Z,101626.22
2022-10-28T09:27:27.078Z,101622.81
2022-10-28T09:30:06.600Z,101631.72
2022-10-28T09:32:56.411Z,101635.16
2022-10-28T09:35:27.663Z,101627.19
2022-10-28T09:38:08.633Z,101635.03
2022-10-28T09:40:37.647Z,101641.22
2022-10-28T09:43:21.490Z,101632.38
2022-10-28T09:45:53.039Z,101628.53
2022-10-28T09:48:22.703Z,101632.78
2022-10-28T09:50:53.287Z,101626.69
2022-10-28T09:53:38.737Z,101635.88
2022-10-28T09:58:45.014Z,101631.94
2022-10-28T10:01:12.631Z,101633.56
2022-10-28T10:03:41.799Z,101627.25
2022-10-28T10:06:15.279Z,101617.66
2022-10-28T10:08:43.043Z,101614.47
2022-10-28T10:11:25.779Z,101622.13
2022-10-28T10:13:53.800Z,101618.38
2022-10-28T10:16:44.483Z,101613.09
2022-10-28T10:19:12.196Z,101614.94
2022-10-28T10:21:59.923Z,101616.56
2022-10-28T10:24:30.446Z,101615.13
2022-10-28T10:27:01.574Z,101604.97
2022-10-28T10:29:30.355Z,101611.16
2022-10-28T10:32:19.757Z,101614.28
2022-10-28T10:34:55.454Z,101594.41
2022-10-28T10:37:23.992Z,101604.00
2022-10-28T10:40:02.818Z,101584.06
2022-10-28T10:42:30.351Z,101597.41
2022-10-28T10:45:17.145Z,101604.81
2022-10-28T10:47:44.591Z,101615.91
2022-10-28T10:50:33.253Z,101613.94
2022-10-28T10:53:02.446Z,101603.25
2022-10-28T10:55:41.546Z,101589.38
2022-10-28T10:58:19.287Z,101600.41
2022-10-28T11:00:50.229Z,101600.75
2022-10-28T11:03:32.040Z,101604.41
2022-10-28T11:08:49.854Z,101593.63
2022-10-28T11:11:22.709Z,101594.09
2022-10-28T11:14:03.189Z,101595.56
2022-10-28T11:16:30.757Z,101605.81
2022-10-28T11:18:58.313Z,101602.13
2022-10-28T11:21:51.549Z,101591.56
2022-10-28T11:24:40.085Z,101601.63
2022-10-28T11:27:35.411Z,101610.22
2022-10-28T11:30:05.521Z,101599.44
2022-10-28T11:32:54.460Z,101602.59
2022-10-28T11:36:11.500Z,101608.09
2022-10-28T11:38:58.885Z,101616.72
2022-10-28T11:41:38.280Z,101609.81
2022-10-28T11:44:20.029Z,101607.88
2022-10-28T11:47:00.859Z,101613.19
2022-10-28T11:49:59.079Z,101622.56
2022-10-28T11:52:35.847Z,101619.34
2022-10-28T11:55:19.256Z,101618.47
2022-10-28T11:57:57.483Z,101616.59
2022-10-28T12:00:40.185Z,101610.28
2022-10-28T12:03:30.832Z,101612.34
2022-10-28T12:06:08.665Z,101622.56
2022-10-28T12:09:12.962Z,101616.13
2022-10-28T12:12:07.169Z,101610.63
2022-10-28T12:15:02.405Z,101606.84
2022-10-28T12:17:41.764Z,101629.50
2022-10-28T12:20:25.222Z,101630.28
2022-10-28T12:22:57.338Z,101624.06
2022-10-28T12:25:35.391Z,101633.41
2022-10-28T12:28:08.012Z,101626.38
2022-10-28T12:30:41.291Z,101626.50
2022-10-28T12:33:18.568Z,101616.03
2022-10-28T12:35:55.376Z,101630.50
2022-10-28T12:38:55.074Z,101625.56
2022-10-28T12:41:27.339Z,101627.28
2022-10-28T12:44:05.688Z,101637.16
2022-10-28T12:47:07.873Z,101632.81
2022-10-28T12:49:57.985Z,101636.38
2022-10-28T12:52:31.125Z,101644.41
2022-10-28T12:55:08.352Z,101654.16
2022-10-28T12:57:38.564Z,101659.59
2022-10-28T13:00:18.910Z,101670.31
2022-10-28T13:03:02.944Z,101667.66
2022-10-28T13:05:47.130Z,101660.72
2022-10-28T13:09:05.141Z,101661.94
2022-10-28T13:11:53.840Z,101670.56
2022-10-28T13:14:53.345Z,101675.84
2022-10-28T13:17:27.037Z,101672.50
2022-10-28T13:20:16.917Z,101681.84
2022-10-28T13:23:09.396Z,101681.13
2022-10-28T13:26:06.406Z,101690.94
2022-10-28T13:29:01.914Z,101693.44
2022-10-28T13:31:47.462Z,101689.88
2022-10-28T13:34:17.624Z,101695.34
2022-10-28T13:36:51.240Z,101697.53
2022-10-28T13:39:23.702Z,101699.03
2022-10-28T13:42:13.778Z,101684.59
2022-10-28T13:44:55.416Z,101684.16
2022-10-28T13:47:35.000Z,101678.78
2022-10-28T13:50:08.748Z,101684.16
2022-10-28T13:52:47.578Z,101694.84
2022-10-28T13:55:15.104Z,101716.31
2022-10-28T13:57:48.549Z,101725.03
2022-10-28T14:00:20.067Z,101716.41
2022-10-28T14:02:50.181Z,101712.09
2022-10-28T14:05:20.154Z,101719.97
2022-10-28T14:08:00.139Z,101715.56
2022-10-28T14:10:32.042Z,101729.56
2022-10-28T14:13:08.600Z,101728.00
2022-10-28T14:15:41.004Z,101710.41
2022-10-28T14:18:42.870Z,101709.72
2022-10-28T14:21:11.141Z,101702.91
2022-10-28T14:23:41.529Z,101731.03
2022-10-28T14:26:09.276Z,101719.59
2022-10-28T14:28:36.688Z,101714.44
2022-10-28T14:31:10.380Z,101721.53
2022-10-28T14:33:43.833Z,101715.56
2022-10-28T14:36:20.468Z,101738.72
2022-10-28T14:39:25.723Z,101745.94
2022-10-28T14:42:02.521Z,101744.00
2022-10-28T14:44:43.296Z,101754.97
2022-10-28T14:47:28.776Z,101750.84
2022-10-28T14:50:17.516Z,101748.16
2022-10-28T14:52:47.328Z,101746.59
2022-10-28T14:55:25.159Z,101748.53
2022-10-28T14:57:53.297Z,101764.38
2022-10-28T15:00:23.269Z,101760.22
2022-10-28T15:02:51.801Z,101759.25
2022-10-28T15:05:24.097Z,101761.09
2022-10-28T15:07:52.567Z,101764.75
2022-10-28T15:10:28.265Z,101759.47
2022-10-28T15:12:58.193Z,101770.00
2022-10-28T15:15:31.184Z,101787.84
2022-10-28T15:18:00.364Z,101795.97
2022-10-28T15:20:35.481Z,101786.44
2022-10-28T15:23:13.477Z,101789.16
2022-10-28T15:25:40.994Z,101791.13
2022-10-28T15:28:12.484Z,101787.81
2022-10-28T15:30:46.685Z,101789.53
2022-10-28T15:33:30.156Z,101785.25
2022-10-28T15:36:17.848Z,101792.31
2022-10-28T15:39:05.374Z,101797.66
2022-10-28T15:41:45.012Z,101797.81
2022-10-28T15:44:29.720Z,101787.44
2022-10-28T15:46:58.406Z,101809.47
2022-10-28T15:49:37.075Z,101806.13
2022-10-28T15:52:19.660Z,101810.53
2022-10-28T15:54:57.816Z,101816.84
2022-10-28T15:57:47.052Z,101824.75
2022-10-28T16:00:30.934Z,101828.38
2022-10-28T16:03:05.263Z,101828.56
2022-10-28T16:05:32.932Z,101829.59
2022-10-28T16:08:06.652Z,101829.72
2022-10-28T16:10:44.895Z,101830.66
2022-10-28T16:13:23.582Z,101832.47
2022-10-28T16:16:03.943Z,101841.34
2022-10-28T16:18:33.647Z,101853.72
2022-10-28T16:21:02.228Z,101866.09
2022-10-28T16:23:35.840Z,101860.78
2022-10-28T16:26:03.485Z,101869.56
2022-10-28T16:28:32.740Z,101858.25
2022-10-28T16:31:01.788Z,101876.72
2022-10-28T16:33:33.430Z,101880.25
2022-10-28T16:36:02.492Z,101877.72
2022-10-28T16:38:31.918Z,101884.75
2022-10-28T16:41:01.292Z,101887.31
2022-10-28T16:43:30.315Z,101888.28
2022-10-28T16:46:00.548Z,101894.53
2022-10-28T16:48:30.257Z,101896.41
2022-10-28T16:51:01.467Z,101892.88
2022-10-28T16:53:29.433Z,101899.03
2022-10-28T16:55:59.064Z,101906.06
2022-10-28T16:58:28.335Z,101906.09
2022-10-28T17:00:56.879Z,101905.28
2022-10-28T17:03:24.391Z,101905.34
2022-10-28T17:05:52.041Z,101905.41
2022-10-28T17:08:36.107Z,101906.50
2022-10-28T17:11:07.164Z,101904.88
2022-10-28T17:13:35.103Z,101900.63
2022-10-28T17:16:02.569Z,101903.31
2022-10-28T17:18:30.039Z,101914.78
2022-10-28T17:21:01.851Z,101919.25
2022-10-28T17:23:30.213Z,101915.81
2022-10-28T17:26:02.813Z,101919.47
2022-10-28T17:28:30.471Z,101936.28
2022-10-28T17:31:05.846Z,101931.19
2022-10-28T17:33:33.482Z,101941.81
2022-10-28T17:36:06.162Z,101947.16
2022-10-28T17:38:33.678Z,101954.28
2022-10-28T17:41:01.588Z,101948.28
2022-10-28T17:43:29.096Z,101963.25
2022-10-28T17:46:07.281Z,101981.72
2022-10-28T17:48:35.408Z,101987.94
2022-10-28T17:51:02.914Z,101986.22
2022-10-28T17:53:30.527Z,101986.28
2022-10-28T17:55:59.113Z,101990.69
2022-10-28T17:58:26.806Z,101995.97
2022-10-28T18:01:01.984Z,101989.91
2022-10-28T18:03:32.837Z,102002.22
2022-10-28T18:06:04.847Z,101990.09
2022-10-28T18:08:37.250Z,101996.25
2022-10-28T18:11:06.619Z,102006.00
2022-10-28T18:13:36.341Z,102007.84
2022-10-28T18:16:09.184Z,102008.78
2022-10-28T18:18:41.093Z,102020.25
2022-10-28T18:21:11.063Z,102022.06
2022-10-28T18:23:39.174Z,102027.38
2022-10-28T18:26:09.335Z,102053.69
2022-10-28T18:28:38.045Z,102043.22
2022-10-28T18:31:08.341Z,102058.94
2022-10-28T18:33:36.620Z,102058.97
2022-10-28T18:36:06.640Z,102064.22
2022-10-28T18:38:34.981Z,102047.66
2022-10-28T18:41:02.409Z,102031.03
2022-10-28T18:43:29.918Z,102022.34
2022-10-28T18:46:02.194Z,102018.94
2022-10-28T18:48:30.942Z,102017.25
2022-10-28T18:51:00.231Z,102028.66
2022-10-28T18:53:28.249Z,102044.44
2022-10-28T18:56:01.078Z,102040.13
2022-10-28T18:58:28.851Z,102041.97
2022-10-28T19:01:14.153Z,102052.53
2022-10-28T19:03:42.410Z,102047.31
2022-10-28T19:06:14.675Z,102054.34
2022-10-28T19:08:43.784Z,102045.69
2022-10-28T19:11:13.457Z,102050.88
2022-10-28T19:13:42.569Z,102050.88
2022-10-28T19:16:10.320Z,102045.69
2022-10-28T19:18:41.115Z,102050.94
2022-10-28T19:21:13.222Z,102044.81
2022-10-28T19:23:41.686Z,102053.59
2022-10-28T19:26:10.708Z,102055.38
2022-10-28T19:28:45.781Z,102051.03
2022-10-28T19:31:15.950Z,102044.91
2022-10-28T19:33:45.216Z,102051.94
2022-10-28T19:36:12.808Z,102051.06
2022-10-28T19:38:40.249Z,102058.09
2022-10-28T19:41:14.233Z,102056.38
2022-10-28T19:43:41.938Z,102065.09
2022-10-28T19:46:19.415Z,102065.16
2022-10-28T19:48:49.668Z,102077.38
2022-10-28T19:51:23.138Z,102075.66
2022-10-28T19:53:55.685Z,102070.47
2022-10-28T19:56:23.574Z,102080.09
2022-10-28T19:58:56.004Z,102079.25
2022-10-28T20:01:25.638Z,102086.25
2022-10-28T20:03:54.784Z,102090.63
2022-10-28T20:06:24.853Z,102081.94
2022-10-28T20:08:52.352Z,102084.56
2022-10-28T20:11:25.895Z,102094.13
2022-10-28T20:13:56.407Z,102107.28
2022-10-28T20:16:25.132Z,102101.16
2022-10-28T20:18:54.555Z,102103.78
2022-10-28T20:21:23.566Z,102114.31
2022-10-28T20:23:54.548Z,102112.56
2022-10-28T20:26:27.829Z,102107.34
2022-10-28T20:28:56.068Z,102115.19
2022-10-28T20:31:26.516Z,102126.56
2022-10-28T20:33:58.672Z,102136.19
2022-10-28T20:36:28.986Z,102131.84
2022-10-28T20:39:17.587Z,102130.97
2022-10-28T20:41:47.271Z,102121.34
2022-10-28T20:44:14.970Z,102114.41
2022-10-28T20:46:42.748Z,102131.84
2022-10-28T20:49:10.542Z,102131.00
2022-10-28T20:51:38.296Z,102133.63
2022-10-28T20:54:05.982Z,102135.34
2022-10-28T20:56:36.268Z,102128.38
2022-10-28T20:59:04.424Z,102147.59
2022-10-28T21:01:34.517Z,102151.97
2022-10-28T21:04:08.160Z,102152.84
2022-10-28T21:06:36.781Z,102156.28
2022-10-28T21:09:05.074Z,102152.81
2022-10-28T21:11:32.611Z,102141.47
2022-10-28T21:14:02.239Z,102137.13
2022-10-28T21:16:31.241Z,102144.09
2022-10-28T21:19:00.108Z,102156.31
2022-10-28T21:21:28.679Z,102147.59
2022-10-28T21:23:56.242Z,102163.25
2022-10-28T21:26:23.893Z,102156.28
2022-10-28T21:28:52.758Z,102159.78
2022-10-28T21:31:21.514Z,102144.06
2022-10-28T21:36:20.949Z,102154.50
2022-10-28T21:38:48.471Z,102161.47
2022-10-28T21:41:18.815Z,102149.25
2022-10-28T21:43:48.673Z,102154.44
2022-10-28T21:46:17.912Z,102151.84
2022-10-28T21:48:46.271Z,102154.44
2022-10-28T21:51:17.085Z,102156.16
2022-10-28T21:53:46.028Z,102157.03
2022-10-28T21:56:18.253Z,102160.50
2022-10-28T21:58:48.052Z,102161.38
2022-10-28T22:01:24.076Z,102159.63
2022-10-28T22:03:53.129Z,102161.34
2022-10-28T22:06:20.961Z,102167.44
2022-10-28T22:08:48.662Z,102170.03
2022-10-28T22:11:21.387Z,102170.00
2022-10-28T22:13:50.016Z,102183.09
2022-10-28T22:16:19.705Z,102175.25
2022-10-28T22:18:47.332Z,102178.72
2022-10-28T22:21:20.972Z,102183.94
2022-10-28T22:23:48.745Z,102178.69
2022-10-28T22:26:19.005Z,102188.25
2022-10-28T22:28:46.521Z,102193.47
2022-10-28T22:31:16.323Z,102186.50
2022-10-28T22:33:44.137Z,102201.31
2022-10-28T22:36:16.992Z,102190.84
2022-10-28T22:38:45.128Z,102196.03
2022-10-28T22:41:14.186Z,102197.78
2022-10-28T22:43:43.516Z,102201.25
2022-10-28T22:46:12.124Z,102209.94
2022-10-28T22:48:39.780Z,102201.25
2022-10-28T22:51:07.269Z,102203.00
2022-10-28T22:53:35.088Z,102199.53
2022-10-28T22:56:02.656Z,102210.84
2022-10-28T22:58:30.130Z,102216.94
2022-10-28T23:01:15.613Z,102216.94
2022-10-28T23:03:45.691Z,102206.47
2022-10-28T23:06:15.511Z,102207.34
2022-10-28T23:08:44.741Z,102208.16
2022-10-28T23:11:13.028Z,102194.22
2022-10-28T23:13:40.692Z,102199.47
2022-10-28T23:16:10.290Z,102197.69
2022-10-28T23:18:38.109Z,102181.94
2022-10-28T23:21:07.496Z,102183.66
2022-10-28T23:23:34.980Z,102183.63
2022-10-28T23:26:02.472Z,102182.75
2022-10-28T23:28:30.242Z,102188.81
2022-10-28T23:31:04.172Z,102185.28
2022-10-28T23:33:32.587Z,102184.41
2022-10-28T23:36:02.015Z,102178.25
2022-10-28T23:38:29.483Z,102189.56
2022-10-28T23:41:05.368Z,102193.03
2022-10-28T23:43:33.555Z,102204.34
2022-10-28T23:46:01.906Z,102209.59
2022-10-28T23:48:29.970Z,102205.25
2022-10-28T23:50:57.915Z,102220.91
2022-10-28T23:53:25.606Z,102214.84
2022-10-28T23:55:53.716Z,102216.59
2022-10-28T23:58:22.790Z,102208.78
